Time;durP1;ratioP1;P1;durP2;ratioP2;P2;SDS_P1;SDS_P2;PMS_P1;PMS_P2;Temp;Humidity;BMP_temperature;BMP_pressure;BME280_temperature;BME280_humidity;BME280_pressure;Samples;Min_cycle;Max_cycle;Signal;HPM_P1;HPM_P2
2022/07/22 00:02:08;;;;;;;7.03;4.03;;;;;;;17.09;100.00;102086.47;5235080;28;20116;-69
2022/07/22 00:04:39;;;;;;;10.02;3.78;;;;;;;17.10;100.00;102085.47;5235172;28;20045;-69
2022/07/22 00:07:10;;;;;;;9.70;4.18;;;;;;;17.05;100.00;102078.91;5231279;28;20029;-69
2022/07/22 00:09:42;;;;;;;8.80;4.13;;;;;;;17.10;100.00;102074.06;5232886;28;20471;-69
2022/07/22 00:12:14;;;;;;;11.32;4.57;;;;;;;17.12;100.00;102080.88;5234539;28;20087;-69
2022/07/22 00:14:45;;;;;;;9.45;4.38;;;;;;;17.09;100.00;102083.81;5233399;28;20026;-69
2022/07/22 00:17:16;;;;;;;11.02;4.72;;;;;;;17.17;100.00;102075.97;5234369;28;20067;-69
2022/07/22 00:19:47;;;;;;;9.20;4.72;;;;;;;17.11;100.00;102075.72;5235639;28;20033;-69
2022/07/22 00:22:19;;;;;;;13.07;4.97;;;;;;;17.18;100.00;102076.81;5233905;28;20034;-69
2022/07/22 00:24:50;;;;;;;7.88;4.88;;;;;;;17.18;100.00;102072.34;5234113;28;20017;-69
2022/07/22 00:27:21;;;;;;;9.90;4.40;;;;;;;17.19;100.00;102074.00;5233398;28;20038;-70
2022/07/22 00:29:53;;;;;;;15.15;5.65;;;;;;;17.08;100.00;102070.69;5232716;28;20057;-69
2022/07/22 00:32:24;;;;;;;12.30;5.15;;;;;;;17.07;100.00;102077.81;5234683;28;20064;-69
2022/07/22 00:34:55;;;;;;;14.10;5.55;;;;;;;17.08;100.00;102068.88;5235071;28;20037;-69
2022/07/22 00:37:27;;;;;;;10.38;4.32;;;;;;;17.15;100.00;102080.56;5231914;28;20104;-69
2022/07/22 00:39:58;;;;;;;9.43;4.93;;;;;;;17.11;100.00;102081.84;5233746;28;20034;-69
2022/07/22 00:42:29;;;;;;;10.18;4.63;;;;;;;17.18;100.00;102077.66;5234408;28;20036;-69
2022/07/22 00:45:00;;;;;;;8.50;4.65;;;;;;;17.17;100.00;102080.44;5233150;28;20029;-69
2022/07/22 00:47:32;;;;;;;7.83;4.43;;;;;;;17.18;100.00;102071.53;5233889;28;20414;-69
2022/07/22 00:50:06;;;;;;;8.25;4.25;;;;;;;17.13;100.00;102079.91;5237384;28;20103;-69
2022/07/22 00:52:37;;;;;;;7.30;4.60;;;;;;;17.17;100.00;102075.97;5237629;28;20033;-69
2022/07/22 00:55:09;;;;;;;10.30;3.95;;;;;;;17.18;100.00;102069.69;5237429;28;20056;-69
2022/07/22 00:57:41;;;;;;;9.77;4.53;;;;;;;17.27;100.00;102066.22;5238431;28;20026;-69
2022/07/22 01:00:18;;;;;;;8.70;4.50;;;;;;;17.23;100.00;102061.31;5238595;28;20033;-69
2022/07/22 01:02:49;;;;;;;7.20;4.32;;;;;;;17.15;100.00;102058.56;5234436;28;20029;-69
2022/07/22 01:05:20;;;;;;;10.02;4.20;;;;;;;17.13;100.00;102053.41;5236248;28;20482;-69
2022/07/22 01:07:52;;;;;;;10.07;4.25;;;;;;;17.20;100.00;102058.97;5237697;28;20025;-69
2022/07/22 01:10:23;;;;;;;10.95;4.13;;;;;;;17.16;100.00;102060.22;5237840;28;20029;-69
2022/07/22 01:12:54;;;;;;;10.68;4.10;;;;;;;17.16;100.00;102052.28;5237181;28;20032;-69
2022/07/22 01:15:25;;;;;;;11.32;4.57;;;;;;;17.13;100.00;102064.00;5237836;28;20079;-69
2022/07/22 01:17:57;;;;;;;8.02;4.22;;;;;;;17.20;100.00;102057.16;5238409;28;20025;-69
2022/07/22 01:20:28;;;;;;;10.35;4.32;;;;;;;17.10;100.00;102058.16;5237939;28;20037;-69
2022/07/22 01:22:59;;;;;;;8.82;4.43;;;;;;;17.10;100.00;102053.69;5237285;28;20032;-69
2022/07/22 01:25:31;;;;;;;12.30;4.95;;;;;;;17.11;100.00;102054.53;5237471;28;20075;-69
2022/07/22 01:28:02;;;;;;;10.70;4.95;;;;;;;17.10;100.00;102047.56;5237863;28;20037;-69
2022/07/22 01:30:33;;;;;;;10.75;4.50;;;;;;;17.06;100.00;102049.66;5238065;28;20030;-69
2022/07/22 01:33:05;;;;;;;11.45;4.78;;;;;;;17.05;100.00;102055.94;5236898;28;20057;-69
2022/07/22 01:35:36;;;;;;;9.63;4.57;;;;;;;16.93;100.00;102050.00;5237235;28;20033;-69
2022/07/22 01:38:07;;;;;;;11.00;4.00;;;;;;;16.91;100.00;102057.22;5236657;28;20029;-69
2022/07/22 01:40:40;;;;;;;11.40;5.38;;;;;;;16.81;100.00;102055.56;5238087;28;20036;-69
2022/07/22 01:43:15;;;;;;;9.88;4.65;;;;;;;16.70;100.00;102045.91;5237908;28;20029;-69
2022/07/22 01:45:50;;;;;;;8.75;4.53;;;;;;;16.61;100.00;102057.38;5237055;28;20495;-69
2022/07/22 01:48:22;;;;;;;7.43;4.38;;;;;;;16.53;100.00;102053.59;5236842;28;20025;-69
2022/07/22 01:50:53;;;;;;;12.03;4.73;;;;;;;16.53;100.00;102056.25;5236968;28;20028;-69
2022/07/22 01:53:24;;;;;;;12.65;5.40;;;;;;;16.47;100.00;102053.31;5236639;28;20025;-69
2022/07/22 01:55:56;;;;;;;8.98;4.53;;;;;;;16.45;100.00;102060.56;5235746;28;20128;-69
2022/07/22 01:58:27;;;;;;;8.20;4.95;;;;;;;16.43;100.00;102068.63;5237591;28;20129;-69
2022/07/22 02:00:59;;;;;;;9.15;5.45;;;;;;;16.39;100.00;102061.13;5234764;28;20442;-69
2022/07/22 02:03:30;;;;;;;9.98;5.28;;;;;;;16.43;100.00;102059.84;5236912;28;20033;-69
2022/07/22 02:06:02;;;;;;;9.15;5.13;;;;;;;16.41;100.00;102052.06;5236580;28;20479;-69
2022/07/22 02:08:34;;;;;;;9.07;5.90;;;;;;;16.44;100.00;102049.16;5237250;28;20421;-69
2022/07/22 02:11:06;;;;;;;8.40;5.20;;;;;;;16.50;100.00;102055.69;5233942;28;20503;-69
2022/07/22 02:13:37;;;;;;;14.20;5.20;;;;;;;16.50;100.00;102050.41;5237203;28;20040;-69
2022/07/22 02:16:08;;;;;;;8.07;5.43;;;;;;;16.58;100.00;102047.06;5237652;28;20037;-69
2022/07/22 02:18:40;;;;;;;13.05;5.82;;;;;;;16.58;100.00;102047.88;5237884;28;20025;-69
2022/07/22 02:21:11;;;;;;;8.50;5.20;;;;;;;16.58;100.00;102045.25;5233826;28;20033;-68
2022/07/22 02:23:42;;;;;;;8.23;5.30;;;;;;;16.57;100.00;102051.50;5236667;28;20487;-71
2022/07/22 02:26:14;;;;;;;7.68;5.25;;;;;;;16.61;100.00;102044.13;5236152;28;20471;-70
2022/07/22 02:28:45;;;;;;;11.25;5.80;;;;;;;16.57;100.00;102040.94;5236903;28;20493;-71
2022/07/22 02:31:16;;;;;;;8.05;5.93;;;;;;;16.61;100.00;102050.25;5234186;28;20061;-68
2022/07/22 02:33:48;;;;;;;13.48;5.50;;;;;;;16.58;100.00;102036.47;5235250;28;20072;-69
2022/07/22 02:36:19;;;;;;;11.32;5.88;;;;;;;16.63;100.00;102044.81;5232729;28;20060;-69
2022/07/22 02:38:50;;;;;;;10.70;5.70;;;;;;;16.55;100.00;102042.88;5236477;28;20535;-69
2022/07/22 02:41:22;;;;;;;11.68;6.05;;;;;;;16.61;100.00;102046.78;5236370;28;20399;-69
2022/07/22 02:43:54;;;;;;;10.60;5.80;;;;;;;16.58;100.00;102045.25;5235784;28;20069;-69
2022/07/22 02:46:28;;;;;;;10.43;6.30;;;;;;;16.62;100.00;102033.41;5235678;28;20033;-69
2022/07/22 02:48:59;;;;;;;9.50;5.90;;;;;;;16.59;100.00;102041.59;5236057;28;20519;-69
2022/07/22 02:51:31;;;;;;;8.95;6.35;;;;;;;16.57;100.00;102034.81;5235791;28;20186;-69
2022/07/22 02:54:02;;;;;;;8.48;6.50;;;;;;;16.65;100.00;102038.41;5235440;28;20026;-69
2022/07/22 02:56:33;;;;;;;10.32;6.30;;;;;;;16.66;100.00;102037.44;5235246;28;20033;-69
2022/07/22 02:59:05;;;;;;;11.75;6.47;;;;;;;16.63;100.00;102034.22;5233379;28;20029;-69
2022/07/22 03:01:36;;;;;;;12.02;5.75;;;;;;;16.66;100.00;102026.84;5234260;28;20075;-69
2022/07/22 03:04:07;;;;;;;12.57;6.50;;;;;;;16.62;100.00;102030.75;5236158;28;20029;-69
2022/07/22 03:06:39;;;;;;;9.32;6.65;;;;;;;16.60;100.00;102018.66;5235871;28;20026;-69
2022/07/22 03:09:10;;;;;;;13.18;6.68;;;;;;;16.60;100.00;102027.44;5234218;28;20033;-69
2022/07/22 03:11:41;;;;;;;12.45;6.45;;;;;;;16.63;100.00;102024.50;5234706;28;20021;-69
2022/07/22 03:14:13;;;;;;;10.05;6.03;;;;;;;16.61;100.00;102030.91;5236034;28;20468;-69
2022/07/22 03:16:45;;;;;;;13.55;6.20;;;;;;;16.61;100.00;102025.63;5235068;28;20034;-69
2022/07/22 03:19:16;;;;;;;12.02;6.38;;;;;;;16.56;100.00;102025.22;5235022;28;20057;-69
2022/07/22 03:21:47;;;;;;;10.52;6.60;;;;;;;16.53;100.00;102021.84;5235797;28;20033;-69
2022/07/22 03:24:19;;;;;;;13.15;6.20;;;;;;;16.58;100.00;102028.53;5236322;28;20067;-69
2022/07/22 03:26:50;;;;;;;10.70;6.53;;;;;;;16.54;100.00;102017.41;5234594;28;20060;-69
2022/07/22 03:29:21;;;;;;;11.05;6.30;;;;;;;16.55;100.00;102021.69;5233920;28;20040;-69
2022/07/22 03:31:52;;;;;;;9.70;6.25;;;;;;;16.54;100.00;102023.50;5234134;28;20091;-69
2022/07/22 03:34:24;;;;;;;11.13;7.00;;;;;;;16.51;100.00;102021.16;5234767;28;20032;-69
2022/07/22 03:36:55;;;;;;;8.52;6.45;;;;;;;16.48;100.00;102020.63;5234976;28;20120;-69
2022/07/22 03:39:26;;;;;;;10.82;6.50;;;;;;;16.46;100.00;102018.09;5233365;28;20031;-69
2022/07/22 03:41:58;;;;;;;10.27;6.40;;;;;;;16.44;100.00;102019.19;5233725;28;20836;-69
2022/07/22 03:44:29;;;;;;;11.07;6.38;;;;;;;16.42;100.00;102018.53;5235291;28;20283;-69
2022/07/22 03:47:01;;;;;;;12.25;6.88;;;;;;;16.42;100.00;102026.47;5232954;28;20102;-69
2022/07/22 03:49:32;;;;;;;8.80;6.57;;;;;;;16.41;100.00;102035.38;5233381;28;20022;-69
2022/07/22 03:52:04;;;;;;;9.88;6.57;;;;;;;16.45;100.00;102021.72;5234232;28;20029;-69
2022/07/22 03:54:35;;;;;;;12.75;6.88;;;;;;;16.45;100.00;102023.53;5234322;28;20037;-69
2022/07/22 03:57:06;;;;;;;8.90;6.57;;;;;;;16.41;100.00;102028.28;5234247;28;20585;-69
2022/07/22 03:59:38;;;;;;;10.35;6.13;;;;;;;16.42;100.00;102034.41;5233094;28;20483;-69
2022/07/22 04:02:09;;;;;;;10.00;6.57;;;;;;;16.47;100.00;102030.34;5233431;28;20037;-69
2022/07/22 04:04:40;;;;;;;11.23;6.47;;;;;;;16.42;100.00;102024.66;5233024;28;20030;-69
2022/07/22 04:07:11;;;;;;;11.57;6.40;;;;;;;16.48;100.00;102041.78;5234334;28;20056;-69
2022/07/22 04:09:43;;;;;;;12.23;7.05;;;;;;;16.50;100.00;102040.66;5233696;28;20041;-69
2022/07/22 04:12:14;;;;;;;13.80;7.18;;;;;;;16.50;100.00;102038.00;5234947;28;20033;-69
2022/07/22 04:14:45;;;;;;;12.82;6.75;;;;;;;16.54;100.00;102039.38;5233490;28;20032;-70
2022/07/22 04:17:16;;;;;;;12.20;6.78;;;;;;;16.54;100.00;102031.44;5234756;28;20029;-69
2022/07/22 04:19:48;;;;;;;8.77;6.35;;;;;;;16.62;100.00;102038.69;5235582;28;20036;-69
2022/07/22 04:22:19;;;;;;;10.13;5.82;;;;;;;16.64;100.00;102039.41;5232492;28;20117;-69
2022/07/22 04:24:50;;;;;;;11.18;6.93;;;;;;;16.61;100.00;102042.31;5235288;28;20045;-70
2022/07/22 04:27:22;;;;;;;9.95;6.22;;;;;;;16.69;100.00;102041.63;5238501;28;20534;-69
2022/07/22 04:29:53;;;;;;;10.27;6.65;;;;;;;16.70;100.00;102041.47;5238246;28;20129;-69
2022/07/22 04:32:24;;;;;;;11.27;6.15;;;;;;;16.66;100.00;102034.78;5238233;28;20041;-69
2022/07/22 04:34:55;;;;;;;12.40;6.78;;;;;;;16.68;100.00;102037.31;5238507;28;20053;-69
2022/07/22 04:37:27;;;;;;;9.90;6.00;;;;;;;16.74;100.00;102026.16;5236621;28;20065;-69
2022/07/22 04:39:58;;;;;;;13.13;7.03;;;;;;;16.78;100.00;102039.00;5238816;28;20037;-69
2022/07/22 04:42:29;;;;;;;11.75;6.13;;;;;;;16.71;100.00;102037.88;5236284;28;20030;-69
2022/07/22 04:45:00;;;;;;;10.60;7.10;;;;;;;16.70;100.00;102032.69;5238498;28;20018;-69
2022/07/22 04:47:32;;;;;;;9.20;6.00;;;;;;;16.74;100.00;102037.63;5238868;28;20268;-69
2022/07/22 04:50:03;;;;;;;17.42;7.32;;;;;;;16.79;100.00;102029.25;5236320;28;20043;-69
2022/07/22 04:52:35;;;;;;;14.15;7.10;;;;;;;16.75;100.00;102026.03;5238823;28;20026;-69
2022/07/22 04:55:06;;;;;;;15.07;6.80;;;;;;;16.77;100.00;102029.38;5237706;28;20060;-69
2022/07/22 04:57:38;;;;;;;11.20;7.47;;;;;;;16.85;100.00;102026.00;5235404;28;20029;-69
2022/07/22 05:00:09;;;;;;;11.68;7.35;;;;;;;16.87;100.00;102018.78;5237288;28;20029;-69
2022/07/22 05:02:41;;;;;;;13.52;8.13;;;;;;;16.83;100.00;102020.03;5238095;28;20352;-69
2022/07/22 05:05:12;;;;;;;10.55;7.85;;;;;;;16.92;100.00;102027.13;5238288;28;20142;-69
2022/07/22 05:07:44;;;;;;;14.95;7.40;;;;;;;16.95;100.00;102028.66;5238422;28;20041;-69
2022/07/22 05:10:15;;;;;;;14.77;8.02;;;;;;;16.94;100.00;102019.88;5234804;28;20025;-69
2022/07/22 05:12:46;;;;;;;11.77;8.10;;;;;;;16.94;100.00;102017.22;5238114;28;20022;-69
2022/07/22 05:15:18;;;;;;;12.90;7.60;;;;;;;17.03;100.00;102023.47;5238590;28;20120;-69
2022/07/22 05:17:49;;;;;;;13.68;8.15;;;;;;;17.05;100.00;102021.53;5237532;28;20139;-69
2022/07/22 05:20:20;;;;;;;12.55;7.78;;;;;;;17.12;100.00;102021.75;5236361;28;20029;-69
2022/07/22 05:22:51;;;;;;;13.85;7.65;;;;;;;17.17;100.00;102012.44;5237573;28;20029;-69
2022/07/22 05:25:23;;;;;;;14.18;7.78;;;;;;;17.21;100.00;102020.91;5236125;28;20025;-69
2022/07/22 05:27:55;;;;;;;9.73;7.65;;;;;;;17.21;100.00;102023.56;5233961;28;20025;-69
2022/07/22 05:30:26;;;;;;;13.37;8.27;;;;;;;17.21;100.00;102011.16;5236155;28;20091;-69
2022/07/22 05:32:58;;;;;;;15.02;8.10;;;;;;;17.26;100.00;102006.25;5237361;28;20662;-69
2022/07/22 05:35:29;;;;;;;14.25;7.90;;;;;;;17.36;100.00;102019.47;5236361;28;20493;-70
2022/07/22 05:38:00;;;;;;;13.02;8.40;;;;;;;17.40;100.00;102018.19;5236967;28;20025;-69
2022/07/22 05:40:32;;;;;;;14.73;8.80;;;;;;;17.36;100.00;102022.13;5236743;28;20168;-69
2022/07/22 05:43:03;;;;;;;10.95;8.32;;;;;;;17.44;100.00;102026.69;5237954;28;20475;-69
2022/07/22 05:45:34;;;;;;;11.23;8.18;;;;;;;17.55;100.00;102031.78;5236951;28;20025;-68
2022/07/22 05:48:06;;;;;;;15.83;8.30;;;;;;;17.58;100.00;102034.16;5237231;28;20064;-69
2022/07/22 05:50:37;;;;;;;11.73;8.30;;;;;;;17.65;100.00;102027.28;5235978;28;20029;-69
2022/07/22 05:53:08;;;;;;;14.48;8.25;;;;;;;17.67;100.00;102029.78;5237057;28;20448;-69
2022/07/22 05:55:40;;;;;;;11.32;9.05;;;;;;;17.78;100.00;102026.13;5234703;28;20533;-69
2022/07/22 05:58:11;;;;;;;12.70;7.73;;;;;;;17.89;100.00;102020.63;5234523;28;20493;-69
2022/07/22 06:00:42;;;;;;;10.85;7.70;;;;;;;17.92;100.00;102022.97;5237487;28;20037;-69
2022/07/22 06:03:13;;;;;;;14.18;8.20;;;;;;;17.93;100.00;102025.47;5233848;28;20108;-69
2022/07/22 06:05:45;;;;;;;13.03;7.63;;;;;;;17.99;100.00;102018.72;5235952;28;20487;-69
2022/07/22 06:08:16;;;;;;;13.00;8.07;;;;;;;18.10;100.00;102031.75;5237179;28;20406;-69
2022/07/22 06:10:48;;;;;;;13.10;6.40;;;;;;;18.08;100.00;102030.25;5235977;28;20045;-69
2022/07/22 06:13:19;;;;;;;12.37;7.17;;;;;;;18.14;100.00;102025.16;5237244;28;20115;-70
2022/07/22 06:15:51;;;;;;;10.02;6.38;;;;;;;18.28;100.00;102031.78;5236683;28;20534;-70
2022/07/22 06:18:22;;;;;;;9.63;6.68;;;;;;;18.27;100.00;102029.28;5236419;28;20037;-70
2022/07/22 06:20:53;;;;;;;14.27;7.07;;;;;;;18.44;100.00;102031.09;5235266;28;20040;-70
2022/07/22 06:23:25;;;;;;;10.73;5.05;;;;;;;18.44;100.00;102023.13;5237183;28;20021;-69
2022/07/22 06:25:56;;;;;;;9.93;4.65;;;;;;;18.43;100.00;102024.94;5234240;28;20017;-69
2022/07/22 06:28:28;;;;;;;9.87;5.03;;;;;;;18.60;100.00;102020.63;5233313;28;20040;-70
2022/07/22 06:30:59;;;;;;;13.90;6.13;;;;;;;18.75;100.00;102020.06;5236592;28;20395;-69
2022/07/22 06:33:33;;;;;;;10.45;5.80;;;;;;;18.81;100.00;102020.31;5235066;28;20110;-69
2022/07/22 06:36:04;;;;;;;10.43;5.97;;;;;;;19.04;100.00;102017.94;5235908;28;20120;-69
2022/07/22 06:38:36;;;;;;;10.70;5.47;;;;;;;19.18;100.00;102017.38;5235743;28;20116;-69
2022/07/22 06:41:07;;;;;;;12.13;4.83;;;;;;;19.23;100.00;102022.22;5234076;28;20033;-69
2022/07/22 06:43:39;;;;;;;12.63;4.17;;;;;;;19.18;100.00;102006.75;5236064;28;20033;-69
2022/07/22 06:46:11;;;;;;;10.48;4.55;;;;;;;19.15;100.00;102012.38;5235640;28;20033;-69
2022/07/22 06:48:42;;;;;;;8.13;3.80;;;;;;;19.19;100.00;102016.38;5234411;28;20091;-69
2022/07/22 06:51:14;;;;;;;6.50;3.30;;;;;;;19.20;100.00;102020.69;5236474;28;20027;-69
2022/07/22 06:53:46;;;;;;;8.98;3.97;;;;;;;19.17;100.00;102017.53;5233913;28;20478;-69
2022/07/22 06:56:17;;;;;;;9.23;3.87;;;;;;;19.34;100.00;102023.75;5234081;28;20025;-69
2022/07/22 06:58:49;;;;;;;4.77;2.53;;;;;;;19.42;100.00;102031.78;5231556;28;20029;-69
2022/07/22 07:01:20;;;;;;;5.20;2.57;;;;;;;19.40;100.00;102029.28;5235274;28;20034;-69
2022/07/22 07:03:51;;;;;;;4.37;2.37;;;;;;;19.42;100.00;102024.63;5231807;28;20044;-70
2022/07/22 07:06:23;;;;;;;5.03;2.80;;;;;;;19.42;100.00;102016.66;5232482;28;20048;-70
2022/07/22 07:08:54;;;;;;;3.87;1.97;;;;;;;19.59;100.00;102022.88;5233320;28;20116;-70
2022/07/22 07:11:25;;;;;;;2.97;1.83;;;;;;;19.57;100.00;102014.22;5231044;28;20124;-70
2022/07/22 07:13:57;;;;;;;8.17;2.60;;;;;;;19.71;100.00;102012.00;5224941;28;20732;-70
2022/07/22 07:16:28;;;;;;;9.57;2.07;;;;;;;19.69;100.00;102012.97;5226102;28;20025;-70
2022/07/22 07:19:00;;;;;;;4.63;2.03;;;;;;;19.65;100.00;102011.63;5228690;28;20037;-70
2022/07/22 07:21:31;;;;;;;5.60;2.20;;;;;;;19.62;100.00;102006.66;5225086;28;20132;-70
2022/07/22 07:24:02;;;;;;;6.57;2.80;;;;;;;19.54;100.00;102006.56;5226471;28;20388;-70
2022/07/22 07:26:34;;;;;;;5.13;2.10;;;;;;;19.52;100.00;102011.22;5229226;28;20025;-70
2022/07/22 07:29:06;;;;;;;5.73;1.73;;;;;;;19.61;100.00;101999.59;5229960;28;20044;-70
2022/07/22 07:31:37;;;;;;;3.93;1.90;;;;;;;19.58;100.00;102015.88;5228332;28;20517;-70
2022/07/22 07:34:08;;;;;;;4.00;1.97;;;;;;;19.68;100.00;102016.63;5233957;28;20037;-70
2022/07/22 07:36:40;;;;;;;4.23;2.10;;;;;;;19.94;100.00;102013.03;5233573;28;20033;-70
2022/07/22 07:39:11;;;;;;;5.00;1.83;;;;;;;19.98;100.00;102014.38;5230139;28;20037;-70
2022/07/22 07:41:43;;;;;;;3.80;1.53;;;;;;;19.99;100.00;102009.88;5232728;28;20083;-70
2022/07/22 07:44:14;;;;;;;4.17;1.50;;;;;;;19.99;100.00;102010.72;5231347;28;20043;-70
2022/07/22 07:46:45;;;;;;;3.87;1.83;;;;;;;20.03;100.00;102005.91;5230780;28;20029;-71
2022/07/22 07:49:17;;;;;;;5.43;1.97;;;;;;;19.97;100.00;102009.22;5228809;28;20038;-70
2022/07/22 07:51:48;;;;;;;5.07;2.10;;;;;;;19.87;100.00;102004.88;5230826;28;20045;-71
2022/07/22 07:54:20;;;;;;;29.30;4.30;;;;;;;19.91;100.00;102008.88;5232844;28;20037;-71
2022/07/22 07:56:51;;;;;;;12.50;2.73;;;;;;;19.98;100.00;102009.06;5229106;28;20029;-70
2022/07/22 07:59:23;;;;;;;53.77;6.47;;;;;;;19.99;100.00;102005.38;5227062;28;20033;-70
2022/07/22 08:01:54;;;;;;;18.13;4.30;;;;;;;20.04;100.00;102007.56;5230783;28;20494;-72
2022/07/22 08:04:26;;;;;;;6.00;2.13;;;;;;;20.10;100.00;102006.91;5231531;28;20067;-70
2022/07/22 08:06:57;;;;;;;4.30;1.90;;;;;;;20.24;100.00;102002.78;5230150;28;20068;-70
2022/07/22 08:09:29;;;;;;;4.93;2.00;;;;;;;20.32;100.00;102006.25;5231817;28;20398;-71
2022/07/22 08:12:00;;;;;;;6.50;1.80;;;;;;;20.39;100.00;101998.44;5227848;28;20032;-70
2022/07/22 08:14:32;;;;;;;2.90;1.47;;;;;;;20.49;100.00;102004.44;5232618;28;20562;-71
2022/07/22 08:17:03;;;;;;;3.97;1.63;;;;;;;20.49;100.00;101998.25;5225059;28;20029;-70
2022/07/22 08:19:35;;;;;;;6.23;1.80;;;;;;;20.67;100.00;101988.31;5229053;28;20037;-71
2022/07/22 08:22:06;;;;;;;4.03;1.67;;;;;;;20.97;100.00;102002.72;5226049;28;20509;-70
2022/07/22 08:24:37;;;;;;;5.23;1.80;;;;;;;21.11;100.00;102001.19;5225397;28;20038;-71
2022/07/22 08:27:09;;;;;;;3.10;1.60;;;;;;;21.17;100.00;101999.66;5230351;28;20033;-72
2022/07/22 08:29:40;;;;;;;4.63;1.53;;;;;;;21.44;100.00;101998.44;5232570;28;20037;-71
2022/07/22 08:32:11;;;;;;;3.00;1.67;;;;;;;21.59;100.00;102005.53;5229640;28;20068;-72
2022/07/22 08:34:43;;;;;;;2.83;1.27;;;;;;;21.78;100.00;101996.28;5232387;28;20037;-70
2022/07/22 08:37:14;;;;;;;2.83;1.20;;;;;;;21.90;100.00;101988.69;5227510;28;20038;-69
2022/07/22 08:39:46;;;;;;;2.97;1.20;;;;;;;22.14;100.00;101989.56;5226930;28;20062;-71
2022/07/22 08:42:18;;;;;;;2.33;1.43;;;;;;;22.14;100.00;101990.38;5231330;28;20025;-72
2022/07/22 08:44:49;;;;;;;23.73;4.93;;;;;;;21.83;100.00;101985.06;5229383;28;20056;-72
2022/07/22 08:47:22;;;;;;;13.57;3.30;;;;;;;21.72;100.00;101985.47;5232569;28;20038;-69
2022/07/22 08:49:53;;;;;;;18.90;3.50;;;;;;;21.62;100.00;101981.16;5230211;28;20550;-74
2022/07/22 08:52:25;;;;;;;13.77;2.67;;;;;;;21.59;100.00;101981.53;5232184;28;20032;-73
2022/07/22 08:54:56;;;;;;;62.67;9.60;;;;;;;21.74;100.00;101991.44;5231193;28;20445;-73
2022/07/22 08:57:28;;;;;;;28.70;4.60;;;;;;;21.56;100.00;101986.41;5228722;28;20152;-73
2022/07/22 09:00:02;;;;;;;4.67;2.00;;;;;;;21.54;100.00;101991.06;5229969;28;20034;-73
2022/07/22 09:02:39;;;;;;;3.75;1.80;;;;;;;21.59;100.00;101984.22;5228937;28;20041;-72
2022/07/22 09:05:14;;;;;;;3.83;1.88;;;;;;;21.33;100.00;101981.84;5232089;28;20099;-71
2022/07/22 09:07:46;;;;;;;6.95;2.38;;;;;;;21.25;100.00;101983.66;5230144;28;20096;-71
2022/07/22 09:10:21;;;;;;;3.25;1.52;;;;;;;21.30;100.00;101990.13;5228278;28;20033;-71
2022/07/22 09:12:55;;;;;;;4.32;1.73;;;;;;;21.17;100.00;101991.69;5232772;28;20076;-70
2022/07/22 09:15:30;;;;;;;2.67;1.70;;;;;;;21.33;100.00;101989.00;5232156;28;20034;-70
2022/07/22 09:18:02;;;;;;;4.25;1.50;;;;;;;21.21;100.00;101993.00;5233582;28;20033;-71
2022/07/22 09:20:36;;;;;;;4.50;1.75;;;;;;;21.18;100.00;101983.53;5233806;28;20022;-70
2022/07/22 09:23:17;;;;;;;3.75;1.55;;;;;;;21.42;100.00;101985.28;5233803;28;20033;-70
2022/07/22 09:25:49;;;;;;;5.18;1.88;;;;;;;21.43;100.00;101973.59;5232905;28;20029;-71
2022/07/22 09:28:22;;;;;;;3.57;1.57;;;;;;;21.85;100.00;101973.19;5231107;28;20132;-70
2022/07/22 09:30:55;;;;;;;5.03;1.75;;;;;;;22.09;100.00;101976.72;5230851;28;20033;-70
2022/07/22 09:33:26;;;;;;;6.00;1.75;;;;;;;22.19;100.00;101977.31;5234455;28;20047;-69
2022/07/22 09:36:03;;;;;;;4.97;1.93;;;;;;;22.37;100.00;101973.50;5233134;28;20407;-70
2022/07/22 09:38:35;;;;;;;4.65;1.90;;;;;;;22.19;100.00;101973.81;5228618;28;20056;-69
2022/07/22 09:41:06;;;;;;;4.53;1.93;;;;;;;22.29;100.00;101969.91;5233234;28;20029;-69
2022/07/22 09:43:38;;;;;;;5.17;2.40;;;;;;;22.42;100.00;101963.09;5234217;28;20061;-69
2022/07/22 09:46:09;;;;;;;3.13;1.80;;;;;;;22.42;100.00;101955.09;5230904;28;20053;-69
2022/07/22 09:48:42;;;;;;;4.50;2.10;;;;;;;22.36;100.00;101959.34;5227232;28;20030;-69
2022/07/22 09:51:14;;;;;;;4.45;2.20;;;;;;;22.58;100.00;101958.47;5229413;28;20411;-69
2022/07/22 09:53:46;;;;;;;3.43;2.00;;;;;;;22.78;100.00;101957.91;5231708;28;20027;-69
2022/07/22 09:56:18;;;;;;;4.57;2.20;;;;;;;23.17;100.00;101956.81;5232973;28;20079;-69
2022/07/22 09:58:49;;;;;;;3.78;1.83;;;;;;;23.31;100.00;101956.81;5233561;28;20060;-70
2022/07/22 10:01:21;;;;;;;4.17;2.03;;;;;;;23.09;100.00;101967.63;5233678;28;20036;-70
2022/07/22 10:03:54;;;;;;;4.18;1.98;;;;;;;23.21;100.00;101960.78;5234244;28;20064;-72
2022/07/22 10:06:25;;;;;;;4.60;2.17;;;;;;;23.09;100.00;101951.59;5231408;28;20033;-70
2022/07/22 10:08:57;;;;;;;3.50;1.87;;;;;;;23.19;100.00;101957.47;5232380;28;20033;-70
2022/07/22 10:11:29;;;;;;;4.73;1.80;;;;;;;23.20;100.00;101972.50;5233054;28;20040;-71
2022/07/22 10:14:01;;;;;;;4.35;2.10;;;;;;;;;;5233295;28;20483;-71
2022/07/22 10:16:32;;;;;;;5.23;2.17;;;;;;;23.00;100.00;101973.06;5233439;28;21191;-71
2022/07/22 10:19:03;;;;;;;4.47;2.07;;;;;;;22.89;100.00;101959.31;5233339;28;20041;-69
2022/07/22 10:21:35;;;;;;;4.00;2.10;;;;;;;22.97;100.00;101962.75;5227137;28;20026;-70
2022/07/22 10:24:09;;;;;;;3.83;2.20;;;;;;;23.13;100.00;101960.88;5224196;28;20512;-68
2022/07/22 10:26:55;;;;;;;3.53;1.88;;;;;;;23.41;100.00;101966.38;5230695;28;20044;-69
2022/07/22 10:29:27;;;;;;;4.60;2.42;;;;;;;23.03;100.00;101967.38;5229566;28;20029;-68
2022/07/22 10:32:16;;;;;;;4.97;2.57;;;;;;;23.51;100.00;101974.94;5233145;28;20072;-70
2022/07/22 10:35:40;;;;;;;5.72;3.00;;;;;;;23.62;100.00;101970.94;5229373;28;20033;-69
2022/07/22 10:38:19;;;;;;;6.28;3.05;;;;;;;23.46;100.00;101966.66;5228581;28;20124;-70
2022/07/22 10:40:55;;;;;;;5.47;2.17;;;;;;;23.97;100.00;101971.94;5231390;28;20038;-69
2022/07/22 10:43:31;;;;;;;4.30;2.50;;;;;;;23.98;100.00;101966.41;5229379;28;20330;-69
2022/07/22 10:46:02;;;;;;;4.95;2.25;;;;;;;23.75;100.00;101960.41;5230990;28;20494;-70
2022/07/22 10:48:37;;;;;;;6.37;2.10;;;;;;;23.93;100.00;101962.66;5232850;28;20032;-70
2022/07/22 10:51:17;;;;;;;5.05;2.72;;;;;;;23.83;100.00;101954.09;5231084;28;20037;-70
2022/07/22 10:54:01;;;;;;;5.53;2.50;;;;;;;23.85;100.00;101958.25;5231936;28;20788;-71
2022/07/22 10:56:35;;;;;;;4.88;2.63;;;;;;;23.63;100.00;101949.34;5231063;28;20064;-68
2022/07/22 10:59:16;;;;;;;6.18;2.80;;;;;;;23.60;100.00;101951.56;5228672;28;20026;-68
2022/07/22 11:01:50;;;;;;;6.22;2.72;;;;;;;23.60;100.00;101948.88;5231662;28;20037;-68
2022/07/22 11:04:25;;;;;;;5.85;2.92;;;;;;;23.47;100.00;101939.72;5229060;28;20111;-69
2022/07/22 11:06:57;;;;;;;5.13;2.80;;;;;;;23.40;100.00;101946.81;5228353;28;20025;-68
2022/07/22 11:09:34;;;;;;;6.40;3.20;;;;;;;23.52;100.00;101944.47;5226165;28;21116;-69
2022/07/22 11:12:12;;;;;;;5.22;3.20;;;;;;;23.65;100.00;101941.97;5232266;28;20051;-68
2022/07/22 11:14:43;;;;;;;8.75;3.40;;;;;;;23.56;100.00;101937.72;5233080;28;20475;-70
2022/07/22 11:17:14;;;;;;;10.67;4.00;;;;;;;23.67;100.00;101936.44;5232472;28;20033;-70
2022/07/22 11:19:50;;;;;;;23.63;5.10;;;;;;;23.87;100.00;101942.00;5232964;28;20029;-71
2022/07/22 11:22:22;;;;;;;18.10;4.43;;;;;;;23.85;100.00;101938.69;5230222;28;20025;-69
2022/07/22 11:24:53;;;;;;;23.70;5.10;;;;;;;23.86;100.00;101934.97;5232317;28;20033;-70
2022/07/22 11:27:25;;;;;;;6.37;3.63;;;;;;;23.96;100.00;101922.13;5232451;28;20025;-71
2022/07/22 11:29:57;;;;;;;4.60;3.10;;;;;;;24.39;100.00;101927.44;5231672;28;20465;-68
2022/07/22 11:32:31;;;;;;;8.68;3.08;;;;;;;24.64;100.00;101931.31;5233315;28;20049;-70
2022/07/22 11:35:02;;;;;;;12.77;4.38;;;;;;;24.88;100.00;101924.63;5234120;28;20483;-70
2022/07/22 11:37:34;;;;;;;6.07;3.50;;;;;;;24.82;100.00;101909.38;5231866;28;20026;-69